YZR7453 ZSNJ-ZYHB
Flight info
| Callsign | YZR7453 |
|---|---|
| Flight time | 2h 16m |
| Altitude | 33100 |
| Route | OF W178 RUXEL GURIL MABEB XDX URBAD W172 IGDEG W173 NIXEP W8 DOBGA W202 UDETI A588 NULRA W206 MAGBI W656 ISLUK W629 LARUN |
| Aircraft | B744/H-SDE2E3FGILRWXY/LB2 |
Departure
| Time | 2026-04-27 00:45 |
|---|---|
| Airport | Nanjing Lukou International Airport (ZSNJ) |
Arrival
| Time | 2026-04-27 03:01 |
|---|---|
| Airport | Harbin Taiping International Airport (ZYHB) |
| Time | Latitude | Longitude | Altitude | Speed | Heading |
|---|---|---|---|---|---|
| 2026-04-27 00:15 | 31.74254 | 118.87054 | 60 ft | 0 kts | 148° |
| 2026-04-27 00:33 | 31.74258 | 118.87051 | 60 ft | 2 kts | 148° |
| 2026-04-27 00:33 | 31.74271 | 118.87041 | 60 ft | 2 kts | 148° |
| 2026-04-27 00:33 | 31.74283 | 118.87032 | 60 ft | 2 kts | 148° |
| 2026-04-27 00:33 | 31.74296 | 118.87023 | 60 ft | 1 kts | 148° |
| 2026-04-27 00:34 | 31.74304 | 118.87016 | 60 ft | 2 kts | 137° |
| 2026-04-27 00:34 | 31.74313 | 118.87002 | 60 ft | 2 kts | 106° |
| 2026-04-27 00:34 | 31.74314 | 118.86984 | 60 ft | 2 kts | 81° |
| 2026-04-27 00:34 | 31.74310 | 118.86970 | 60 ft | 0 kts | 59° |
| 2026-04-27 00:35 | 31.74307 | 118.86964 | 60 ft | 0 kts | 58° |
| 2026-04-27 00:38 | 31.74311 | 118.86972 | 60 ft | 3 kts | 57° |
| 2026-04-27 00:39 | 31.74341 | 118.87023 | 60 ft | 11 kts | 57° |
| 2026-04-27 00:39 | 31.74386 | 118.87107 | 60 ft | 12 kts | 58° |
| 2026-04-27 00:39 | 31.74426 | 118.87166 | 60 ft | 8 kts | 22° |
| 2026-04-27 00:39 | 31.74478 | 118.87157 | 60 ft | 6 kts | 332° |
| 2026-04-27 00:40 | 31.74519 | 118.87169 | 60 ft | 7 kts | 44° |
| 2026-04-27 00:40 | 31.74550 | 118.87216 | 60 ft | 7 kts | 58° |
| 2026-04-27 00:40 | 31.74578 | 118.87270 | 60 ft | 7 kts | 58° |
| 2026-04-27 00:40 | 31.74608 | 118.87325 | 60 ft | 8 kts | 58° |
| 2026-04-27 00:41 | 31.74639 | 118.87384 | 60 ft | 8 kts | 58° |
| 2026-04-27 00:41 | 31.74673 | 118.87446 | 60 ft | 9 kts | 58° |
| 2026-04-27 00:41 | 31.74707 | 118.87510 | 60 ft | 9 kts | 58° |
| 2026-04-27 00:41 | 31.74743 | 118.87577 | 60 ft | 9 kts | 58° |
| 2026-04-27 00:42 | 31.74780 | 118.87646 | 60 ft | 10 kts | 58° |
| 2026-04-27 00:42 | 31.74819 | 118.87720 | 60 ft | 10 kts | 58° |
| 2026-04-27 00:42 | 31.74858 | 118.87794 | 60 ft | 10 kts | 58° |
| 2026-04-27 00:42 | 31.74897 | 118.87866 | 60 ft | 8 kts | 56° |
| 2026-04-27 00:43 | 31.74947 | 118.87886 | 60 ft | 8 kts | 341° |
| 2026-04-27 00:43 | 31.74999 | 118.87852 | 60 ft | 8 kts | 328° |
| 2026-04-27 00:43 | 31.75048 | 118.87811 | 60 ft | 8 kts | 307° |
| 2026-04-27 00:43 | 31.75048 | 118.87746 | 60 ft | 8 kts | 240° |
| 2026-04-27 00:44 | 31.75036 | 118.87724 | 60 ft | 0 kts | 238° |
| 2026-04-27 00:44 | 31.75017 | 118.87688 | 60 ft | 21 kts | 238° |
| 2026-04-27 00:44 | 31.74814 | 118.87311 | 60 ft | 89 kts | 238° |
| 2026-04-27 00:44 | 31.74359 | 118.86463 | 60 ft | 152 kts | 238° |
| 2026-04-27 00:45 | 31.73703 | 118.85234 | 143 ft | 195 kts | 238° |
| 2026-04-27 00:45 | 31.72999 | 118.83813 | 590 ft | 210 kts | 246° |
| 2026-04-27 00:45 | 31.72532 | 118.82198 | 1391 ft | 211 kts | 256° |
| 2026-04-27 00:45 | 31.72194 | 118.80554 | 2146 ft | 209 kts | 254° |
| 2026-04-27 00:46 | 31.71770 | 118.78934 | 2692 ft | 216 kts | 252° |
| 2026-04-27 00:46 | 31.71301 | 118.77222 | 3264 ft | 222 kts | 253° |
| 2026-04-27 00:46 | 31.70832 | 118.75491 | 3955 ft | 223 kts | 253° |
| 2026-04-27 00:46 | 31.70362 | 118.73758 | 4570 ft | 228 kts | 253° |
| 2026-04-27 00:47 | 31.69883 | 118.71986 | 5152 ft | 234 kts | 254° |
| 2026-04-27 00:47 | 31.69389 | 118.70145 | 5712 ft | 240 kts | 254° |
| 2026-04-27 00:47 | 31.68887 | 118.68247 | 6290 ft | 246 kts | 255° |
| 2026-04-27 00:47 | 31.68367 | 118.66287 | 6712 ft | 256 kts | 255° |
| 2026-04-27 00:48 | 31.67932 | 118.64270 | 7208 ft | 259 kts | 268° |
| 2026-04-27 00:48 | 31.68092 | 118.62164 | 7732 ft | 258 kts | 289° |
| 2026-04-27 00:48 | 31.68908 | 118.60294 | 8163 ft | 262 kts | 309° |
| 2026-04-27 00:48 | 31.70290 | 118.58867 | 8519 ft | 271 kts | 329° |
| 2026-04-27 00:49 | 31.72088 | 118.58085 | 8851 ft | 282 kts | 349° |
| 2026-04-27 00:49 | 31.74055 | 118.58091 | 9254 ft | 290 kts | 8° |
| 2026-04-27 00:49 | 31.75963 | 118.58907 | 9722 ft | 297 kts | 28° |
| 2026-04-27 00:49 | 31.77582 | 118.60465 | 10158 ft | 305 kts | 47° |
| 2026-04-27 00:50 | 31.78720 | 118.62558 | 10551 ft | 311 kts | 60° |
| 2026-04-27 00:50 | 31.81564 | 118.66337 | 11188 ft | 314 kts | 25° |
| 2026-04-27 00:50 | 31.83588 | 118.67271 | 11393 ft | 317 kts | 7° |
| 2026-04-27 00:51 | 31.85824 | 118.67471 | 11562 ft | 323 kts | 355° |
| 2026-04-27 00:51 | 31.88093 | 118.67413 | 11954 ft | 327 kts | 356° |
| 2026-04-27 00:51 | 31.90344 | 118.67477 | 12429 ft | 328 kts | 358° |
| 2026-04-27 00:51 | 31.92645 | 118.67580 | 12878 ft | 329 kts | 358° |
| 2026-04-27 00:52 | 31.94953 | 118.67711 | 13315 ft | 331 kts | 358° |
| 2026-04-27 00:52 | 31.97245 | 118.67842 | 13741 ft | 332 kts | 358° |
| 2026-04-27 00:52 | 31.99557 | 118.67994 | 14123 ft | 335 kts | 358° |
| 2026-04-27 00:52 | 32.01896 | 118.68143 | 14515 ft | 336 kts | 358° |
| 2026-04-27 00:53 | 32.04247 | 118.68306 | 14907 ft | 336 kts | 358° |
| 2026-04-27 00:53 | 32.06587 | 118.68472 | 15254 ft | 338 kts | 358° |
| 2026-04-27 00:53 | 32.08958 | 118.68645 | 15563 ft | 341 kts | 358° |
| 2026-04-27 00:53 | 32.11347 | 118.68821 | 15867 ft | 344 kts | 358° |
| 2026-04-27 00:54 | 32.13752 | 118.69005 | 16195 ft | 345 kts | 357° |
| 2026-04-27 00:54 | 32.16141 | 118.69180 | 16504 ft | 348 kts | 358° |
| 2026-04-27 00:54 | 32.18590 | 118.69364 | 16769 ft | 352 kts | 358° |
| 2026-04-27 00:54 | 32.21029 | 118.69553 | 17052 ft | 354 kts | 358° |
| 2026-04-27 00:55 | 32.23517 | 118.69746 | 17374 ft | 356 kts | 358° |
| 2026-04-27 00:55 | 32.25974 | 118.69932 | 17697 ft | 357 kts | 357° |
| 2026-04-27 00:55 | 32.28471 | 118.70128 | 18021 ft | 359 kts | 358° |
| 2026-04-27 00:55 | 32.30960 | 118.70318 | 18337 ft | 360 kts | 357° |
| 2026-04-27 00:56 | 32.33466 | 118.70509 | 18638 ft | 362 kts | 358° |
| 2026-04-27 00:56 | 32.35984 | 118.70716 | 18954 ft | 363 kts | 358° |
| 2026-04-27 00:56 | 32.38536 | 118.70908 | 19278 ft | 364 kts | 358° |
| 2026-04-27 00:56 | 32.41077 | 118.71114 | 19587 ft | 366 kts | 357° |
| 2026-04-27 00:57 | 32.43604 | 118.71306 | 19866 ft | 368 kts | 357° |
| 2026-04-27 00:57 | 32.46189 | 118.71507 | 20149 ft | 375 kts | 358° |
| 2026-04-27 00:57 | 32.48831 | 118.71712 | 20672 ft | 381 kts | 358° |
| 2026-04-27 00:57 | 32.51472 | 118.71924 | 21318 ft | 382 kts | 357° |
| 2026-04-27 00:58 | 32.54147 | 118.72141 | 21825 ft | 387 kts | 358° |
| 2026-04-27 00:58 | 32.56815 | 118.72348 | 22411 ft | 390 kts | 357° |
| 2026-04-27 00:58 | 32.59579 | 118.72567 | 22890 ft | 395 kts | 357° |
| 2026-04-27 00:58 | 32.62291 | 118.72783 | 23461 ft | 396 kts | 357° |
| 2026-04-27 00:59 | 32.65059 | 118.72998 | 24004 ft | 398 kts | 357° |
| 2026-04-27 00:59 | 32.67842 | 118.73225 | 24520 ft | 400 kts | 357° |
| 2026-04-27 00:59 | 32.70633 | 118.73444 | 25095 ft | 401 kts | 356° |
| 2026-04-27 00:59 | 32.73427 | 118.73673 | 25593 ft | 403 kts | 356° |
| 2026-04-27 01:00 | 32.76234 | 118.73901 | 26070 ft | 405 kts | 356° |
| 2026-04-27 01:00 | 32.79063 | 118.74126 | 26525 ft | 407 kts | 356° |
| 2026-04-27 01:00 | 32.81883 | 118.74358 | 27061 ft | 407 kts | 355° |
| 2026-04-27 01:00 | 32.84700 | 118.74579 | 27499 ft | 408 kts | 355° |
| 2026-04-27 01:01 | 32.87530 | 118.74796 | 27954 ft | 409 kts | 355° |
| 2026-04-27 01:01 | 32.90398 | 118.75031 | 28342 ft | 412 kts | 355° |
| 2026-04-27 01:01 | 32.93273 | 118.75266 | 28732 ft | 413 kts | 355° |
| 2026-04-27 01:01 | 32.96155 | 118.75494 | 29036 ft | 417 kts | 355° |
| 2026-04-27 01:02 | 32.99041 | 118.75709 | 29380 ft | 419 kts | 355° |
| 2026-04-27 01:02 | 33.01968 | 118.75944 | 29708 ft | 422 kts | 355° |
| 2026-04-27 01:02 | 33.04920 | 118.76189 | 30054 ft | 424 kts | 355° |
| 2026-04-27 01:02 | 33.07881 | 118.76419 | 30435 ft | 424 kts | 354° |
| 2026-04-27 01:03 | 33.10886 | 118.76662 | 30789 ft | 426 kts | 355° |
| 2026-04-27 01:03 | 33.13861 | 118.76904 | 31132 ft | 426 kts | 354° |
| 2026-04-27 01:03 | 33.16842 | 118.77142 | 31437 ft | 428 kts | 354° |
| 2026-04-27 01:03 | 33.19840 | 118.77384 | 31649 ft | 431 kts | 354° |
| 2026-04-27 01:04 | 33.22897 | 118.77626 | 31938 ft | 432 kts | 354° |
| 2026-04-27 01:04 | 33.25917 | 118.77868 | 32214 ft | 434 kts | 354° |
| 2026-04-27 01:04 | 33.28958 | 118.78115 | 32492 ft | 435 kts | 354° |
| 2026-04-27 01:04 | 33.32040 | 118.78367 | 32790 ft | 437 kts | 354° |
| 2026-04-27 01:05 | 33.35140 | 118.78619 | 32968 ft | 442 kts | 354° |
| 2026-04-27 01:05 | 33.38288 | 118.78863 | 33078 ft | 450 kts | 354° |
| 2026-04-27 01:05 | 33.41501 | 118.79115 | 33123 ft | 459 kts | 354° |
| 2026-04-27 01:06 | 33.48055 | 118.79641 | 33111 ft | 476 kts | 354° |
| 2026-04-27 01:06 | 33.54879 | 118.80190 | 33063 ft | 483 kts | 355° |
| 2026-04-27 01:07 | 33.61716 | 118.80740 | 33046 ft | 482 kts | 355° |
| 2026-04-27 01:07 | 33.68514 | 118.81288 | 33019 ft | 483 kts | 355° |
| 2026-04-27 01:08 | 33.75381 | 118.81846 | 33023 ft | 484 kts | 354° |
| 2026-04-27 01:08 | 33.82207 | 118.82398 | 33024 ft | 481 kts | 354° |
| 2026-04-27 01:09 | 33.88943 | 118.82939 | 33018 ft | 479 kts | 354° |
| 2026-04-27 01:09 | 33.95729 | 118.83500 | 33014 ft | 481 kts | 354° |
| 2026-04-27 01:10 | 34.02517 | 118.84050 | 33016 ft | 482 kts | 354° |
| 2026-04-27 01:10 | 34.09312 | 118.84612 | 33020 ft | 481 kts | 354° |
| 2026-04-27 01:11 | 34.16011 | 118.85165 | 33012 ft | 480 kts | 354° |
| 2026-04-27 01:11 | 34.22703 | 118.85711 | 33003 ft | 480 kts | 354° |
| 2026-04-27 01:12 | 34.29353 | 118.86243 | 33009 ft | 481 kts | 354° |
| 2026-04-27 01:12 | 34.36082 | 118.86805 | 33011 ft | 479 kts | 354° |
| 2026-04-27 01:13 | 34.42818 | 118.87363 | 33007 ft | 478 kts | 354° |
| 2026-04-27 01:13 | 34.49606 | 118.87933 | 33001 ft | 482 kts | 354° |
| 2026-04-27 01:14 | 34.56396 | 118.88480 | 33007 ft | 481 kts | 353° |
| 2026-04-27 01:14 | 34.63123 | 118.88847 | 32966 ft | 484 kts | 356° |
| 2026-04-27 01:14 | 34.66462 | 118.89709 | 32963 ft | 501 kts | 8° |
| 2026-04-27 01:15 | 34.69684 | 118.91425 | 32972 ft | 517 kts | 20° |
| 2026-04-27 01:15 | 34.72668 | 118.93959 | 32985 ft | 533 kts | 32° |
| 2026-04-27 01:15 | 34.75287 | 118.97255 | 32977 ft | 547 kts | 44° |
| 2026-04-27 01:15 | 34.77387 | 119.01160 | 32982 ft | 557 kts | 56° |
| 2026-04-27 01:16 | 34.79180 | 119.05276 | 32979 ft | 552 kts | 51° |
| 2026-04-27 01:16 | 34.81451 | 119.09012 | 32973 ft | 538 kts | 40° |
| 2026-04-27 01:16 | 34.84016 | 119.12251 | 32995 ft | 530 kts | 34° |
| 2026-04-27 01:17 | 34.89414 | 119.18323 | 32998 ft | 524 kts | 32° |
| 2026-04-27 01:17 | 34.94955 | 119.24161 | 33000 ft | 525 kts | 31° |
| 2026-04-27 01:18 | 35.00591 | 119.29923 | 32992 ft | 525 kts | 30° |
| 2026-04-27 01:18 | 35.06262 | 119.35668 | 32998 ft | 525 kts | 30° |
| 2026-04-27 01:19 | 35.11930 | 119.41454 | 32989 ft | 525 kts | 29° |
| 2026-04-27 01:19 | 35.17575 | 119.47167 | 32999 ft | 524 kts | 30° |
| 2026-04-27 01:20 | 35.23169 | 119.52839 | 32985 ft | 525 kts | 30° |
| 2026-04-27 01:20 | 35.28786 | 119.58594 | 32996 ft | 523 kts | 29° |
| 2026-04-27 01:21 | 35.34418 | 119.64295 | 32984 ft | 526 kts | 29° |
| 2026-04-27 01:21 | 35.40047 | 119.70055 | 32977 ft | 526 kts | 30° |
| 2026-04-27 01:22 | 35.45559 | 119.75934 | 32979 ft | 526 kts | 30° |
| 2026-04-27 01:22 | 35.51261 | 119.81506 | 32990 ft | 524 kts | 29° |
| 2026-04-27 01:23 | 35.56915 | 119.87174 | 33024 ft | 526 kts | 30° |
| 2026-04-27 01:23 | 35.62638 | 119.92945 | 32997 ft | 525 kts | 30° |
| 2026-04-27 01:24 | 35.68355 | 119.98728 | 33004 ft | 526 kts | 29° |
| 2026-04-27 01:24 | 35.74094 | 120.04534 | 33004 ft | 529 kts | 29° |
| 2026-04-27 01:25 | 35.79819 | 120.10369 | 33008 ft | 528 kts | 29° |
| 2026-04-27 01:25 | 35.85487 | 120.16145 | 32996 ft | 526 kts | 29° |
| 2026-04-27 01:26 | 35.91232 | 120.21940 | 32993 ft | 528 kts | 29° |
| 2026-04-27 01:26 | 35.96889 | 120.27890 | 32995 ft | 526 kts | 31° |
| 2026-04-27 01:26 | 35.99490 | 120.31070 | 32965 ft | 538 kts | 38° |
| 2026-04-27 01:27 | 36.02010 | 120.34553 | 32993 ft | 540 kts | 38° |
| 2026-04-27 01:27 | 36.07137 | 120.41465 | 33023 ft | 542 kts | 39° |
| 2026-04-27 01:28 | 36.12610 | 120.47632 | 32975 ft | 510 kts | 19° |
| 2026-04-27 01:28 | 36.15744 | 120.49531 | 32993 ft | 493 kts | 7° |
| 2026-04-27 01:28 | 36.18986 | 120.50554 | 33020 ft | 474 kts | 355° |
| 2026-04-27 01:28 | 36.22193 | 120.50705 | 33028 ft | 455 kts | 343° |
| 2026-04-27 01:29 | 36.25360 | 120.50438 | 33053 ft | 460 kts | 345° |
| 2026-04-27 01:29 | 36.31814 | 120.50079 | 33034 ft | 468 kts | 345° |
| 2026-04-27 01:30 | 36.38376 | 120.49800 | 32986 ft | 477 kts | 352° |
| 2026-04-27 01:30 | 36.41685 | 120.50544 | 32959 ft | 497 kts | 5° |
| 2026-04-27 01:30 | 36.44958 | 120.52133 | 32981 ft | 512 kts | 13° |
| 2026-04-27 01:31 | 36.51471 | 120.55691 | 32998 ft | 503 kts | 8° |
| 2026-04-27 01:31 | 36.54756 | 120.56816 | 32947 ft | 482 kts | 356° |
| 2026-04-27 01:31 | 36.58046 | 120.57286 | 32985 ft | 476 kts | 353° |
| 2026-04-27 01:32 | 36.64743 | 120.58363 | 33014 ft | 480 kts | 354° |
| 2026-04-27 01:32 | 36.71455 | 120.59505 | 33005 ft | 479 kts | 355° |
| 2026-04-27 01:33 | 36.78115 | 120.60655 | 32984 ft | 480 kts | 355° |
| 2026-04-27 01:33 | 36.84844 | 120.61839 | 32980 ft | 481 kts | 355° |
| 2026-04-27 01:34 | 36.91618 | 120.62968 | 32989 ft | 484 kts | 355° |
| 2026-04-27 01:34 | 36.98399 | 120.64215 | 32989 ft | 484 kts | 356° |
| 2026-04-27 01:35 | 37.05134 | 120.65473 | 32948 ft | 482 kts | 356° |
| 2026-04-27 01:35 | 37.11733 | 120.66715 | 32959 ft | 482 kts | 355° |
| 2026-04-27 01:36 | 37.18415 | 120.67973 | 32982 ft | 483 kts | 355° |
| 2026-04-27 01:36 | 37.25087 | 120.69216 | 32978 ft | 482 kts | 355° |
| 2026-04-27 01:37 | 37.31819 | 120.70483 | 32984 ft | 483 kts | 356° |
| 2026-04-27 01:37 | 37.38567 | 120.71758 | 32964 ft | 482 kts | 355° |
| 2026-04-27 01:38 | 37.45280 | 120.73025 | 32982 ft | 482 kts | 355° |
| 2026-04-27 01:38 | 37.52016 | 120.74311 | 32971 ft | 483 kts | 355° |
| 2026-04-27 01:39 | 37.58718 | 120.75511 | 32971 ft | 476 kts | 353° |
| 2026-04-27 01:39 | 37.65385 | 120.76352 | 32972 ft | 474 kts | 352° |
| 2026-04-27 01:40 | 37.72030 | 120.77171 | 32980 ft | 474 kts | 352° |
| 2026-04-27 01:40 | 37.78670 | 120.77975 | 32971 ft | 474 kts | 351° |
| 2026-04-27 01:41 | 37.85395 | 120.78790 | 32975 ft | 475 kts | 351° |
| 2026-04-27 01:41 | 37.92019 | 120.79632 | 32956 ft | 471 kts | 351° |
| 2026-04-27 01:42 | 37.98646 | 120.80411 | 32944 ft | 481 kts | 354° |
| 2026-04-27 01:42 | 38.01965 | 120.81441 | 32955 ft | 503 kts | 6° |
| 2026-04-27 01:42 | 38.05217 | 120.83379 | 32942 ft | 528 kts | 18° |
| 2026-04-27 01:43 | 38.11480 | 120.88345 | 32989 ft | 525 kts | 18° |
| 2026-04-27 01:43 | 38.17699 | 120.92997 | 32958 ft | 519 kts | 18° |
| 2026-04-27 01:44 | 38.23730 | 120.98178 | 32926 ft | 537 kts | 31° |
| 2026-04-27 01:44 | 38.26310 | 121.01755 | 32930 ft | 555 kts | 44° |
| 2026-04-27 01:44 | 38.28342 | 121.05904 | 32936 ft | 568 kts | 56° |
| 2026-04-27 01:45 | 38.31195 | 121.15411 | 32981 ft | 577 kts | 62° |
| 2026-04-27 01:45 | 38.34318 | 121.24802 | 32970 ft | 572 kts | 60° |
| 2026-04-27 01:46 | 38.37579 | 121.34173 | 32973 ft | 568 kts | 59° |
| 2026-04-27 01:46 | 38.40693 | 121.43493 | 32966 ft | 570 kts | 63° |
| 2026-04-27 01:47 | 38.43980 | 121.52569 | 32973 ft | 558 kts | 52° |
| 2026-04-27 01:47 | 38.47720 | 121.61465 | 32978 ft | 562 kts | 56° |
| 2026-04-27 01:48 | 38.51313 | 121.70358 | 32949 ft | 562 kts | 57° |
| 2026-04-27 01:48 | 38.54849 | 121.79253 | 32967 ft | 561 kts | 57° |
| 2026-04-27 01:49 | 38.58341 | 121.88045 | 32976 ft | 559 kts | 57° |
| 2026-04-27 01:49 | 38.61850 | 121.96919 | 32965 ft | 559 kts | 57° |
| 2026-04-27 01:50 | 38.65400 | 122.05811 | 32987 ft | 556 kts | 57° |
| 2026-04-27 01:50 | 38.69078 | 122.14445 | 32928 ft | 543 kts | 45° |
| 2026-04-27 01:50 | 38.71546 | 122.18010 | 32950 ft | 529 kts | 33° |
| 2026-04-27 01:51 | 38.74458 | 122.20851 | 32962 ft | 513 kts | 21° |
| 2026-04-27 01:51 | 38.80650 | 122.25200 | 33013 ft | 514 kts | 21° |
| 2026-04-27 01:52 | 38.86827 | 122.29894 | 32993 ft | 515 kts | 21° |
| 2026-04-27 01:52 | 38.93072 | 122.34798 | 32979 ft | 517 kts | 21° |
| 2026-04-27 01:53 | 38.99229 | 122.39625 | 32980 ft | 514 kts | 22° |
| 2026-04-27 01:53 | 39.05405 | 122.44507 | 32984 ft | 518 kts | 22° |
| 2026-04-27 01:54 | 39.11561 | 122.49418 | 32999 ft | 516 kts | 22° |
| 2026-04-27 01:54 | 39.17784 | 122.54345 | 33009 ft | 517 kts | 22° |
| 2026-04-27 01:55 | 39.23928 | 122.59313 | 33006 ft | 518 kts | 24° |
| 2026-04-27 01:55 | 39.30133 | 122.64143 | 32998 ft | 510 kts | 18° |
| 2026-04-27 01:56 | 39.39580 | 122.70728 | 33006 ft | 516 kts | 20° |
| 2026-04-27 01:56 | 39.45861 | 122.75214 | 33008 ft | 514 kts | 21° |
| 2026-04-27 01:57 | 39.52100 | 122.79667 | 33010 ft | 514 kts | 21° |
| 2026-04-27 01:57 | 39.58383 | 122.84171 | 32992 ft | 515 kts | 21° |
| 2026-04-27 01:58 | 39.64689 | 122.88711 | 32987 ft | 515 kts | 21° |
| 2026-04-27 01:58 | 39.71062 | 122.93291 | 32983 ft | 517 kts | 21° |
| 2026-04-27 01:59 | 39.77452 | 122.97907 | 32972 ft | 516 kts | 21° |
| 2026-04-27 01:59 | 39.83785 | 123.02496 | 32957 ft | 516 kts | 22° |
| 2026-04-27 02:00 | 39.90141 | 123.07107 | 32979 ft | 516 kts | 22° |
| 2026-04-27 02:00 | 39.96507 | 123.11683 | 32969 ft | 517 kts | 22° |
| 2026-04-27 02:01 | 40.02844 | 123.16386 | 32978 ft | 518 kts | 23° |
| 2026-04-27 02:01 | 40.09218 | 123.21023 | 32995 ft | 516 kts | 21° |
| 2026-04-27 02:02 | 40.15589 | 123.25573 | 33009 ft | 516 kts | 22° |
| 2026-04-27 02:02 | 40.22018 | 123.30209 | 33011 ft | 516 kts | 22° |
| 2026-04-27 02:03 | 40.28387 | 123.34800 | 33015 ft | 515 kts | 22° |
| 2026-04-27 02:03 | 40.34750 | 123.39414 | 33008 ft | 515 kts | 22° |
| 2026-04-27 02:04 | 40.41092 | 123.44035 | 33023 ft | 515 kts | 22° |
| 2026-04-27 02:04 | 40.47434 | 123.48625 | 33021 ft | 514 kts | 22° |
| 2026-04-27 02:05 | 40.53774 | 123.53260 | 33039 ft | 515 kts | 24° |
| 2026-04-27 02:05 | 40.60051 | 123.57993 | 33015 ft | 513 kts | 23° |
| 2026-04-27 02:06 | 40.66418 | 123.62577 | 33023 ft | 513 kts | 24° |
| 2026-04-27 02:06 | 40.72747 | 123.67165 | 33010 ft | 513 kts | 24° |
| 2026-04-27 02:07 | 40.79104 | 123.71859 | 33017 ft | 512 kts | 25° |
| 2026-04-27 02:07 | 40.85366 | 123.76541 | 33017 ft | 512 kts | 23° |
| 2026-04-27 02:08 | 40.91685 | 123.80965 | 33034 ft | 510 kts | 23° |
| 2026-04-27 02:08 | 40.98029 | 123.85480 | 33025 ft | 511 kts | 24° |
| 2026-04-27 02:09 | 41.04370 | 123.90028 | 33034 ft | 512 kts | 24° |
| 2026-04-27 02:09 | 41.10733 | 123.94595 | 33037 ft | 511 kts | 24° |
| 2026-04-27 02:10 | 41.17078 | 123.99179 | 33046 ft | 511 kts | 24° |
| 2026-04-27 02:10 | 41.23461 | 124.03770 | 33041 ft | 510 kts | 24° |
| 2026-04-27 02:11 | 41.29753 | 124.08321 | 33070 ft | 509 kts | 24° |
| 2026-04-27 02:11 | 41.36093 | 124.12917 | 33050 ft | 509 kts | 24° |
| 2026-04-27 02:12 | 41.42335 | 124.17554 | 33073 ft | 509 kts | 25° |
| 2026-04-27 02:12 | 41.48587 | 124.22208 | 33071 ft | 509 kts | 25° |
| 2026-04-27 02:13 | 41.54743 | 124.26834 | 33073 ft | 509 kts | 25° |
| 2026-04-27 02:13 | 41.60932 | 124.31505 | 33101 ft | 508 kts | 25° |
| 2026-04-27 02:14 | 41.67053 | 124.36139 | 33073 ft | 508 kts | 25° |
| 2026-04-27 02:14 | 41.73238 | 124.40826 | 33083 ft | 509 kts | 25° |
| 2026-04-27 02:15 | 41.79405 | 124.45510 | 33077 ft | 509 kts | 25° |
| 2026-04-27 02:15 | 41.85544 | 124.50187 | 33078 ft | 508 kts | 25° |
| 2026-04-27 02:16 | 41.91687 | 124.54861 | 33083 ft | 510 kts | 25° |
| 2026-04-27 02:16 | 41.97834 | 124.59624 | 33081 ft | 509 kts | 26° |
| 2026-04-27 02:17 | 42.04092 | 124.63911 | 33077 ft | 507 kts | 22° |
| 2026-04-27 02:17 | 42.10382 | 124.68199 | 33068 ft | 507 kts | 23° |
| 2026-04-27 02:18 | 42.16677 | 124.72518 | 33074 ft | 507 kts | 23° |
| 2026-04-27 02:18 | 42.22932 | 124.76820 | 33070 ft | 506 kts | 23° |
| 2026-04-27 02:19 | 42.29200 | 124.81140 | 33084 ft | 507 kts | 23° |
| 2026-04-27 02:19 | 42.35498 | 124.85493 | 33081 ft | 508 kts | 23° |
| 2026-04-27 02:20 | 42.41773 | 124.89839 | 33073 ft | 506 kts | 23° |
| 2026-04-27 02:20 | 42.48029 | 124.94179 | 33074 ft | 508 kts | 23° |
| 2026-04-27 02:21 | 42.54302 | 124.98551 | 33091 ft | 505 kts | 23° |
| 2026-04-27 02:21 | 42.60560 | 125.02915 | 33095 ft | 505 kts | 23° |
| 2026-04-27 02:22 | 42.66774 | 125.07262 | 33101 ft | 506 kts | 23° |
| 2026-04-27 02:22 | 42.73039 | 125.11633 | 33105 ft | 506 kts | 23° |
| 2026-04-27 02:23 | 42.79281 | 125.16032 | 33103 ft | 505 kts | 23° |
| 2026-04-27 02:23 | 42.85479 | 125.20448 | 33108 ft | 503 kts | 21° |
| 2026-04-27 02:24 | 42.91756 | 125.24744 | 33114 ft | 505 kts | 22° |
| 2026-04-27 02:24 | 42.98011 | 125.29076 | 33124 ft | 504 kts | 22° |
| 2026-04-27 02:25 | 43.04265 | 125.33429 | 33114 ft | 503 kts | 22° |
| 2026-04-27 02:25 | 43.10490 | 125.37778 | 33125 ft | 502 kts | 22° |
| 2026-04-27 02:26 | 43.16710 | 125.42137 | 33115 ft | 501 kts | 22° |
| 2026-04-27 02:26 | 43.22906 | 125.46477 | 33139 ft | 501 kts | 22° |
| 2026-04-27 02:27 | 43.25966 | 125.48637 | 33098 ft | 490 kts | 22° |
| 2026-04-27 02:27 | 43.28998 | 125.50769 | 32898 ft | 482 kts | 22° |
| 2026-04-27 02:27 | 43.31947 | 125.52838 | 32553 ft | 478 kts | 21° |
| 2026-04-27 02:27 | 43.34897 | 125.54910 | 32105 ft | 476 kts | 22° |
| 2026-04-27 02:28 | 43.37859 | 125.57001 | 31626 ft | 473 kts | 21° |
| 2026-04-27 02:28 | 43.40790 | 125.59078 | 31093 ft | 468 kts | 21° |
| 2026-04-27 02:28 | 43.43686 | 125.61119 | 30520 ft | 460 kts | 21° |
| 2026-04-27 02:28 | 43.46564 | 125.63143 | 29956 ft | 455 kts | 22° |
| 2026-04-27 02:29 | 43.49413 | 125.65167 | 29383 ft | 447 kts | 22° |
| 2026-04-27 02:29 | 43.52166 | 125.67116 | 28806 ft | 445 kts | 22° |
| 2026-04-27 02:29 | 43.54894 | 125.69051 | 28266 ft | 441 kts | 22° |
| 2026-04-27 02:29 | 43.57574 | 125.70967 | 27719 ft | 433 kts | 22° |
| 2026-04-27 02:30 | 43.60267 | 125.72885 | 27157 ft | 430 kts | 22° |
| 2026-04-27 02:30 | 43.62879 | 125.74747 | 26608 ft | 425 kts | 22° |
| 2026-04-27 02:30 | 43.65515 | 125.76621 | 26064 ft | 422 kts | 22° |
| 2026-04-27 02:30 | 43.68087 | 125.78448 | 25506 ft | 414 kts | 23° |
| 2026-04-27 02:31 | 43.70660 | 125.80293 | 24927 ft | 411 kts | 23° |
| 2026-04-27 02:31 | 43.73222 | 125.82136 | 24368 ft | 408 kts | 24° |
| 2026-04-27 02:31 | 43.75742 | 125.83965 | 23844 ft | 421 kts | 23° |
| 2026-04-27 02:31 | 43.78424 | 125.85479 | 23322 ft | 407 kts | 10° |
| 2026-04-27 02:32 | 43.81134 | 125.86128 | 22788 ft | 391 kts | 2° |
| 2026-04-27 02:32 | 43.83829 | 125.86608 | 22228 ft | 383 kts | 4° |
| 2026-04-27 02:32 | 43.86427 | 125.87131 | 21676 ft | 380 kts | 4° |
| 2026-04-27 02:32 | 43.89059 | 125.87647 | 21142 ft | 378 kts | 4° |
| 2026-04-27 02:33 | 43.91643 | 125.88168 | 20601 ft | 371 kts | 4° |
| 2026-04-27 02:33 | 43.94175 | 125.88886 | 20019 ft | 374 kts | 15° |
| 2026-04-27 02:33 | 43.96509 | 125.90459 | 19472 ft | 381 kts | 31° |
| 2026-04-27 02:33 | 43.98582 | 125.92740 | 18952 ft | 377 kts | 37° |
| 2026-04-27 02:34 | 44.00590 | 125.95039 | 18440 ft | 373 kts | 34° |
| 2026-04-27 02:34 | 44.02601 | 125.97284 | 17930 ft | 370 kts | 35° |
| 2026-04-27 02:34 | 44.04591 | 125.99522 | 17424 ft | 365 kts | 35° |
| 2026-04-27 02:34 | 44.06570 | 126.01720 | 16894 ft | 361 kts | 31° |
| 2026-04-27 02:35 | 44.08752 | 126.03329 | 16352 ft | 349 kts | 14° |
| 2026-04-27 02:35 | 44.11050 | 126.04037 | 15836 ft | 338 kts | 4° |
| 2026-04-27 02:35 | 44.13380 | 126.04490 | 15349 ft | 338 kts | 5° |
| 2026-04-27 02:35 | 44.15701 | 126.05022 | 14853 ft | 336 kts | 5° |
| 2026-04-27 02:36 | 44.17969 | 126.05522 | 14362 ft | 333 kts | 5° |
| 2026-04-27 02:36 | 44.20276 | 126.06028 | 13872 ft | 331 kts | 6° |
| 2026-04-27 02:36 | 44.22519 | 126.06528 | 13384 ft | 326 kts | 6° |
| 2026-04-27 02:36 | 44.24731 | 126.07010 | 12938 ft | 319 kts | 6° |
| 2026-04-27 02:37 | 44.26917 | 126.07491 | 12616 ft | 316 kts | 6° |
| 2026-04-27 02:37 | 44.29066 | 126.07971 | 12360 ft | 307 kts | 6° |
| 2026-04-27 02:37 | 44.31112 | 126.08431 | 12135 ft | 294 kts | 6° |
| 2026-04-27 02:37 | 44.33104 | 126.08878 | 11917 ft | 282 kts | 6° |
| 2026-04-27 02:38 | 44.35029 | 126.09309 | 11731 ft | 278 kts | 6° |
| 2026-04-27 02:38 | 44.36914 | 126.09731 | 11551 ft | 276 kts | 6° |
| 2026-04-27 02:38 | 44.38810 | 126.10149 | 11369 ft | 276 kts | 6° |
| 2026-04-27 02:38 | 44.40725 | 126.10571 | 11184 ft | 275 kts | 7° |
| 2026-04-27 02:39 | 44.42605 | 126.10985 | 11007 ft | 274 kts | 7° |
| 2026-04-27 02:39 | 44.44486 | 126.11400 | 10827 ft | 273 kts | 7° |
| 2026-04-27 02:39 | 44.46360 | 126.11812 | 10656 ft | 272 kts | 7° |
| 2026-04-27 02:39 | 44.48222 | 126.12225 | 10474 ft | 270 kts | 7° |
| 2026-04-27 02:40 | 44.50077 | 126.12633 | 10296 ft | 268 kts | 7° |
| 2026-04-27 02:40 | 44.51898 | 126.13039 | 10118 ft | 267 kts | 7° |
| 2026-04-27 02:40 | 44.53735 | 126.13454 | 9942 ft | 266 kts | 7° |
| 2026-04-27 02:40 | 44.55557 | 126.13860 | 9762 ft | 266 kts | 7° |
| 2026-04-27 02:41 | 44.57378 | 126.14267 | 9581 ft | 265 kts | 7° |
| 2026-04-27 02:41 | 44.59204 | 126.14674 | 9431 ft | 264 kts | 7° |
| 2026-04-27 02:41 | 44.61024 | 126.15079 | 9308 ft | 263 kts | 7° |
| 2026-04-27 02:41 | 44.62826 | 126.15485 | 9183 ft | 263 kts | 7° |
| 2026-04-27 02:42 | 44.64613 | 126.15890 | 9055 ft | 263 kts | 7° |
| 2026-04-27 02:42 | 44.66430 | 126.16296 | 8924 ft | 263 kts | 7° |
| 2026-04-27 02:42 | 44.68239 | 126.16702 | 8798 ft | 263 kts | 7° |
| 2026-04-27 02:42 | 44.70051 | 126.17107 | 8671 ft | 262 kts | 7° |
| 2026-04-27 02:43 | 44.71850 | 126.17507 | 8539 ft | 262 kts | 7° |
| 2026-04-27 02:43 | 44.73672 | 126.17740 | 8409 ft | 260 kts | 1° |
| 2026-04-27 02:43 | 44.75467 | 126.17869 | 8281 ft | 260 kts | 2° |
| 2026-04-27 02:43 | 44.77282 | 126.18034 | 8151 ft | 260 kts | 2° |
| 2026-04-27 02:44 | 44.79093 | 126.18192 | 8021 ft | 259 kts | 2° |
| 2026-04-27 02:44 | 44.80880 | 126.18356 | 7894 ft | 259 kts | 2° |
| 2026-04-27 02:44 | 44.82691 | 126.18520 | 7764 ft | 260 kts | 2° |
| 2026-04-27 02:44 | 44.84503 | 126.18685 | 7634 ft | 260 kts | 2° |
| 2026-04-27 02:45 | 44.86312 | 126.18847 | 7505 ft | 259 kts | 2° |
| 2026-04-27 02:45 | 44.88086 | 126.19004 | 7380 ft | 259 kts | 2° |
| 2026-04-27 02:45 | 44.89902 | 126.19165 | 7246 ft | 258 kts | 3° |
| 2026-04-27 02:45 | 44.91690 | 126.19322 | 7117 ft | 258 kts | 2° |
| 2026-04-27 02:46 | 44.93466 | 126.19175 | 6962 ft | 257 kts | 345° |
| 2026-04-27 02:46 | 44.95080 | 126.18111 | 6831 ft | 259 kts | 324° |
| 2026-04-27 02:46 | 44.96339 | 126.16292 | 6712 ft | 261 kts | 311° |
| 2026-04-27 02:46 | 44.97466 | 126.14313 | 6588 ft | 262 kts | 312° |
| 2026-04-27 02:47 | 44.98648 | 126.12351 | 6462 ft | 262 kts | 313° |
| 2026-04-27 02:47 | 44.99826 | 126.10390 | 6335 ft | 261 kts | 313° |
| 2026-04-27 02:47 | 45.01000 | 126.08437 | 6207 ft | 261 kts | 313° |
| 2026-04-27 02:47 | 45.02172 | 126.06484 | 6080 ft | 261 kts | 313° |
| 2026-04-27 02:48 | 45.03343 | 126.04535 | 5954 ft | 260 kts | 313° |
| 2026-04-27 02:48 | 45.04511 | 126.02582 | 5823 ft | 260 kts | 313° |
| 2026-04-27 02:48 | 45.05683 | 126.00627 | 5717 ft | 259 kts | 313° |
| 2026-04-27 02:48 | 45.06834 | 125.98709 | 5614 ft | 258 kts | 313° |
| 2026-04-27 02:49 | 45.07996 | 125.96767 | 5519 ft | 258 kts | 313° |
| 2026-04-27 02:49 | 45.09153 | 125.94833 | 5422 ft | 258 kts | 313° |
| 2026-04-27 02:49 | 45.10310 | 125.92899 | 5320 ft | 258 kts | 313° |
| 2026-04-27 02:49 | 45.11460 | 125.90972 | 5225 ft | 258 kts | 313° |
| 2026-04-27 02:50 | 45.12625 | 125.89024 | 5120 ft | 257 kts | 313° |
| 2026-04-27 02:50 | 45.13784 | 125.87084 | 5017 ft | 257 kts | 313° |
| 2026-04-27 02:50 | 45.14916 | 125.85152 | 4912 ft | 257 kts | 311° |
| 2026-04-27 02:50 | 45.16046 | 125.83176 | 4810 ft | 257 kts | 311° |
| 2026-04-27 02:51 | 45.17167 | 125.81233 | 4709 ft | 256 kts | 311° |
| 2026-04-27 02:51 | 45.18293 | 125.79275 | 4598 ft | 255 kts | 313° |
| 2026-04-27 02:51 | 45.19616 | 125.77674 | 4450 ft | 247 kts | 334° |
| 2026-04-27 02:51 | 45.21211 | 125.76957 | 4302 ft | 241 kts | 356° |
| 2026-04-27 02:52 | 45.22868 | 125.77215 | 4173 ft | 239 kts | 19° |
| 2026-04-27 02:52 | 45.24294 | 125.78400 | 4067 ft | 240 kts | 42° |
| 2026-04-27 02:52 | 45.25267 | 125.80307 | 3968 ft | 244 kts | 62° |
| 2026-04-27 02:52 | 45.25931 | 125.82532 | 3893 ft | 245 kts | 64° |
| 2026-04-27 02:53 | 45.26642 | 125.84734 | 3796 ft | 244 kts | 60° |
| 2026-04-27 02:53 | 45.27628 | 125.86616 | 3662 ft | 240 kts | 38° |
| 2026-04-27 02:53 | 45.29031 | 125.87914 | 3574 ft | 238 kts | 27° |
| 2026-04-27 02:53 | 45.30471 | 125.89060 | 3491 ft | 239 kts | 29° |
| 2026-04-27 02:54 | 45.31895 | 125.90272 | 3392 ft | 238 kts | 30° |
| 2026-04-27 02:54 | 45.33317 | 125.91474 | 3287 ft | 237 kts | 30° |
| 2026-04-27 02:54 | 45.34709 | 125.92709 | 3168 ft | 236 kts | 36° |
| 2026-04-27 02:54 | 45.35944 | 125.94150 | 3048 ft | 226 kts | 39° |
| 2026-04-27 02:55 | 45.37121 | 125.95609 | 2978 ft | 221 kts | 39° |
| 2026-04-27 02:55 | 45.38290 | 125.97040 | 2966 ft | 221 kts | 38° |
| 2026-04-27 02:55 | 45.39473 | 125.98444 | 2972 ft | 221 kts | 38° |
| 2026-04-27 02:55 | 45.40654 | 125.99831 | 2975 ft | 221 kts | 37° |
| 2026-04-27 02:56 | 45.41845 | 126.01221 | 2978 ft | 222 kts | 37° |
| 2026-04-27 02:56 | 45.43057 | 126.02623 | 2974 ft | 222 kts | 37° |
| 2026-04-27 02:56 | 45.44242 | 126.04000 | 2977 ft | 223 kts | 37° |
| 2026-04-27 02:56 | 45.45456 | 126.05403 | 2978 ft | 223 kts | 37° |
| 2026-04-27 02:57 | 45.46653 | 126.06785 | 2976 ft | 223 kts | 37° |
| 2026-04-27 02:57 | 45.47853 | 126.08186 | 3045 ft | 212 kts | 37° |
| 2026-04-27 02:57 | 45.48962 | 126.09472 | 3021 ft | 205 kts | 37° |
| 2026-04-27 02:57 | 45.50050 | 126.10729 | 3010 ft | 195 kts | 37° |
| 2026-04-27 02:58 | 45.51052 | 126.11891 | 3068 ft | 176 kts | 37° |
| 2026-04-27 02:58 | 45.51975 | 126.12964 | 3127 ft | 168 kts | 36° |
| 2026-04-27 02:58 | 45.52870 | 126.14001 | 2874 ft | 163 kts | 37° |
| 2026-04-27 02:58 | 45.53721 | 126.14992 | 2633 ft | 158 kts | 36° |
| 2026-04-27 02:59 | 45.54567 | 126.15989 | 2397 ft | 157 kts | 37° |
| 2026-04-27 02:59 | 45.55416 | 126.16956 | 2166 ft | 157 kts | 38° |
| 2026-04-27 02:59 | 45.56270 | 126.17934 | 1949 ft | 156 kts | 38° |
| 2026-04-27 02:59 | 45.57108 | 126.18898 | 1709 ft | 155 kts | 39° |
| 2026-04-27 03:00 | 45.57945 | 126.19918 | 1446 ft | 162 kts | 39° |
| 2026-04-27 03:00 | 45.58781 | 126.20929 | 1265 ft | 157 kts | 36° |
| 2026-04-27 03:00 | 45.59649 | 126.21885 | 1019 ft | 158 kts | 41° |
| 2026-04-27 03:00 | 45.60502 | 126.22871 | 754 ft | 157 kts | 39° |
| 2026-04-27 03:01 | 45.61342 | 126.23872 | 530 ft | 158 kts | 37° |
| 2026-04-27 03:01 | 45.62127 | 126.24762 | 514 ft | 115 kts | 40° |
| 2026-04-27 03:01 | 45.62565 | 126.25281 | 514 ft | 43 kts | 40° |
| 2026-04-27 03:01 | 45.62672 | 126.25389 | 514 ft | 12 kts | 27° |
| 2026-04-27 03:02 | 45.62737 | 126.25433 | 514 ft | 5 kts | 18° |
| 2026-04-27 03:02 | 45.62778 | 126.25451 | 514 ft | 6 kts | 16° |
| 2026-04-27 03:02 | 45.62823 | 126.25468 | 514 ft | 7 kts | 14° |
| 2026-04-27 03:02 | 45.62875 | 126.25484 | 514 ft | 7 kts | 11° |
| 2026-04-27 03:03 | 45.62930 | 126.25500 | 514 ft | 8 kts | 12° |
| 2026-04-27 03:03 | 45.63053 | 126.25551 | 514 ft | 9 kts | 27° |
| 2026-04-27 03:03 | 45.63109 | 126.25606 | 514 ft | 9 kts | 38° |
| 2026-04-27 03:04 | 45.63162 | 126.25668 | 514 ft | 10 kts | 39° |
| 2026-04-27 03:04 | 45.63218 | 126.25732 | 514 ft | 10 kts | 39° |
| 2026-04-27 03:04 | 45.63267 | 126.25787 | 514 ft | 7 kts | 16° |
| 2026-04-27 03:04 | 45.63319 | 126.25765 | 514 ft | 8 kts | 316° |
| 2026-04-27 03:05 | 45.63355 | 126.25702 | 514 ft | 8 kts | 308° |
| 2026-04-27 03:05 | 45.63393 | 126.25636 | 514 ft | 8 kts | 309° |
| 2026-04-27 03:05 | 45.63434 | 126.25587 | 514 ft | 7 kts | 354° |
| 2026-04-27 03:05 | 45.63472 | 126.25627 | 514 ft | 7 kts | 75° |
| 2026-04-27 03:06 | 45.63462 | 126.25688 | 514 ft | 4 kts | 119° |
| 2026-04-27 03:06 | 45.63451 | 126.25707 | 514 ft | 0 kts | 133° |
| 2026-04-27 03:06 | 45.63448 | 126.25712 | 514 ft | 0 kts | 131° |